createdAt,value
2022-09-28T00:01:17.524Z,99064.47
2022-09-28T00:03:48.244Z,99059.94
2022-09-28T00:06:16.802Z,99064.47
2022-09-28T00:08:43.334Z,99057.63
2022-09-28T00:11:12.886Z,99059.09
2022-09-28T00:13:40.314Z,99058.00
2022-09-28T00:16:08.995Z,99056.50
2022-09-28T00:18:36.195Z,99053.84
2022-09-28T00:21:11.166Z,99045.59
2022-09-28T00:23:56.221Z,99046.38
2022-09-28T00:26:23.287Z,99045.97
2022-09-28T00:28:54.004Z,99041.06
2022-09-28T00:31:21.296Z,99038.06
2022-09-28T00:33:52.065Z,99032.81
2022-09-28T00:36:21.201Z,99033.22
2022-09-28T00:38:48.389Z,99023.41
2022-09-28T00:41:16.089Z,99042.59
2022-09-28T00:43:46.223Z,99036.56
2022-09-28T00:46:23.792Z,99029.06
2022-09-28T00:48:57.883Z,99021.16
2022-09-28T00:51:25.576Z,99021.91
2022-09-28T00:53:56.186Z,99022.31
2022-09-28T00:56:25.507Z,99031.72
2022-09-28T00:58:53.486Z,99033.63
2022-09-28T01:01:20.603Z,99027.97
2022-09-28T01:03:50.817Z,99029.50
2022-09-28T01:06:20.502Z,99026.81
2022-09-28T01:08:50.555Z,99025.69
2022-09-28T01:11:18.637Z,99026.81
2022-09-28T01:13:46.596Z,99026.03
2022-09-28T01:16:28.539Z,99022.66
2022-09-28T01:19:24.797Z,99023.03
2022-09-28T01:22:01.843Z,99028.31
2022-09-28T01:24:41.032Z,99017.78
2022-09-28T01:27:16.006Z,99019.63
2022-09-28T01:30:04.967Z,99020.75
2022-09-28T01:32:50.107Z,99015.09
2022-09-28T01:35:31.825Z,99020.28
2022-09-28T01:38:17.289Z,99021.03
2022-09-28T01:40:44.530Z,99017.94
2022-09-28T01:43:18.107Z,99016.06
2022-09-28T01:45:47.907Z,99016.38
2022-09-28T01:48:19.550Z,99015.97
2022-09-28T01:50:48.582Z,99008.78
2022-09-28T01:53:35.508Z,99010.69
2022-09-28T01:56:24.461Z,98998.66
2022-09-28T01:58:55.477Z,99002.06
2022-09-28T02:01:28.330Z,99006.63
2022-09-28T02:04:07.160Z,98996.88
2022-09-28T02:06:42.105Z,98993.13
2022-09-28T02:09:11.914Z,98999.91
2022-09-28T02:11:42.461Z,98996.16
2022-09-28T02:14:11.623Z,99004.81
2022-09-28T02:16:41.833Z,98996.94
2022-09-28T02:19:17.975Z,98999.19
2022-09-28T02:22:03.080Z,98993.88
2022-09-28T02:24:39.543Z,98985.59
2022-09-28T02:27:14.796Z,98985.59
2022-09-28T02:29:41.530Z,98989.81
2022-09-28T02:32:07.990Z,98984.91
2022-09-28T02:34:35.449Z,98987.56
2022-09-28T02:37:02.099Z,98981.19
2022-09-28T02:39:28.521Z,98986.41
2022-09-28T02:42:29.744Z,98983.81
2022-09-28T02:45:24.674Z,98978.19
2022-09-28T02:48:19.101Z,98973.28
2022-09-28T02:51:01.043Z,98982.72
2022-09-28T02:54:06.234Z,98975.63
2022-09-28T02:56:47.483Z,98970.69
2022-09-28T02:59:24.424Z,98981.97
2022-09-28T03:02:06.574Z,98986.50
2022-09-28T03:04:37.533Z,98983.09
2022-09-28T03:07:07.568Z,98987.63
2022-09-28T03:09:37.898Z,98984.59
2022-09-28T03:12:08.830Z,98984.22
2022-09-28T03:14:35.492Z,98983.81
2022-09-28T03:17:01.980Z,98979.69
2022-09-28T03:19:32.471Z,98983.47
2022-09-28T03:21:59.592Z,98986.88
2022-09-28T03:24:26.365Z,98980.88
2022-09-28T03:26:52.822Z,98983.91
2022-09-28T03:29:20.486Z,98978.66
2022-09-28T03:31:47.902Z,98977.53
2022-09-28T03:34:14.516Z,98979.41
2022-09-28T03:36:40.958Z,98974.13
2022-09-28T03:39:07.381Z,98974.13
2022-09-28T03:41:33.852Z,98977.84
2022-09-28T03:44:00.326Z,98969.94
2022-09-28T03:46:27.378Z,98968.78
2022-09-28T03:48:57.682Z,98963.50
2022-09-28T03:51:24.106Z,98960.91
2022-09-28T03:53:50.514Z,98959.75
2022-09-28T03:56:17.482Z,98957.53
2022-09-28T03:58:43.914Z,98954.50
2022-09-28T04:01:16.905Z,98958.63
2022-09-28T04:03:44.586Z,98956.41
2022-09-28T04:06:11.363Z,98960.09
2022-09-28T04:08:37.803Z,98947.38
2022-09-28T04:11:04.348Z,98948.50
2022-09-28T04:13:31.017Z,98947.38
2022-09-28T04:15:59.809Z,98940.97
2022-09-28T04:18:26.488Z,98938.34
2022-09-28T04:21:06.661Z,98934.63
2022-09-28T04:23:35.369Z,98932.72
2022-09-28T04:26:03.984Z,98934.22
2022-09-28T04:28:48.923Z,98932.31
2022-09-28T04:31:18.193Z,98928.84
2022-09-28T04:33:44.700Z,98916.81
2022-09-28T04:36:11.225Z,98926.19
2022-09-28T04:38:52.350Z,98922.88
2022-09-28T04:41:19.819Z,98918.34
2022-09-28T04:43:50.035Z,98921.72
2022-09-28T04:46:16.701Z,98923.69
2022-09-28T04:48:43.250Z,98921.81
2022-09-28T04:51:09.695Z,98927.06
2022-09-28T04:53:36.195Z,98930.44
2022-09-28T04:56:08.159Z,98931.50
2022-09-28T04:58:35.708Z,98930.78
2022-09-28T05:01:08.530Z,98930.78
2022-09-28T05:03:35.208Z,98928.09
2022-09-28T05:06:01.656Z,98928.50
2022-09-28T05:08:28.096Z,98921.03
2022-09-28T05:11:02.657Z,98930.44
2022-09-28T05:13:29.643Z,98928.53
2022-09-28T05:16:00.608Z,98931.47
2022-09-28T05:18:29.844Z,98930.34
2022-09-28T05:20:56.263Z,98926.66
2022-09-28T05:23:22.697Z,98926.31
2022-09-28T05:25:49.242Z,98922.53
2022-09-28T05:28:27.236Z,98922.91
2022-09-28T05:30:55.551Z,98928.16
2022-09-28T05:33:22.012Z,98931.16
2022-09-28T05:35:54.410Z,98928.53
2022-09-28T05:38:22.893Z,98921.38
2022-09-28T05:40:49.594Z,98924.41
2022-09-28T05:43:16.054Z,98927.41
2022-09-28T05:45:42.663Z,98933.44
2022-09-28T05:48:09.114Z,98926.69
2022-09-28T05:50:35.822Z,98922.19
2022-09-28T05:53:08.351Z,98918.78
2022-09-28T05:55:36.136Z,98920.28
2022-09-28T05:58:04.876Z,98911.97
2022-09-28T06:00:33.290Z,98917.56
2022-09-28T06:03:21.300Z,98915.34
2022-09-28T06:05:47.787Z,98925.13
2022-09-28T06:08:14.271Z,98921.41
2022-09-28T06:10:40.968Z,98918.00
2022-09-28T06:13:08.014Z,98917.63
2022-09-28T06:15:35.692Z,98924.38
2022-09-28T06:18:04.685Z,98918.00
2022-09-28T06:20:36.611Z,98927.81
2022-09-28T06:23:03.437Z,98914.28
2022-09-28T06:25:29.890Z,98914.63
2022-09-28T06:28:04.784Z,98912.75
2022-09-28T06:30:33.445Z,98916.13
2022-09-28T06:33:01.941Z,98919.91
2022-09-28T06:35:30.450Z,98909.31
2022-09-28T06:37:57.741Z,98908.16
2022-09-28T06:40:24.947Z,98910.50
2022-09-28T06:43:12.539Z,98899.97
2022-09-28T06:45:39.240Z,98904.81
2022-09-28T06:48:06.575Z,98898.06
2022-09-28T06:50:35.939Z,98910.44
2022-09-28T06:53:02.548Z,98905.94
2022-09-28T06:55:29.130Z,98907.09
2022-09-28T06:58:00.399Z,98906.69
2022-09-28T07:00:28.531Z,98904.47
2022-09-28T07:02:54.977Z,98918.41
2022-09-28T07:05:26.699Z,98916.84
2022-09-28T07:07:59.011Z,98914.63
2022-09-28T07:10:28.457Z,98912.72
2022-09-28T07:12:56.653Z,98914.97
2022-09-28T07:15:24.043Z,98911.22
2022-09-28T07:18:00.710Z,98914.22
2022-09-28T07:20:28.729Z,98913.88
2022-09-28T07:22:56.412Z,98919.91
2022-09-28T07:25:24.314Z,98917.63
2022-09-28T07:27:50.749Z,98918.34
2022-09-28T07:30:17.644Z,98916.88
2022-09-28T07:32:45.356Z,98921.03
2022-09-28T07:35:11.780Z,98914.63
2022-09-28T07:37:38.932Z,98919.09
2022-09-28T07:40:25.881Z,98920.22
2022-09-28T07:42:52.464Z,98919.44
2022-09-28T07:45:20.752Z,98922.47
2022-09-28T07:47:47.205Z,98924.38
2022-09-28T07:50:13.702Z,98923.66
2022-09-28T07:52:40.156Z,98922.13
2022-09-28T07:55:07.601Z,98920.28
2022-09-28T07:57:34.767Z,98921.03
2022-09-28T08:00:02.279Z,98926.66
2022-09-28T08:02:28.847Z,98922.53
2022-09-28T08:04:56.375Z,98918.00
2022-09-28T08:07:24.178Z,98930.03
2022-09-28T08:09:51.084Z,98920.28
2022-09-28T08:12:19.702Z,98928.19
2022-09-28T08:14:47.109Z,98930.44
2022-09-28T08:17:13.667Z,98923.69
2022-09-28T08:19:58.509Z,98917.28
2022-09-28T08:22:24.957Z,98930.44
2022-09-28T08:24:51.463Z,98929.69
2022-09-28T08:27:18.425Z,98919.53
2022-09-28T08:29:44.882Z,98915.41
2022-09-28T08:32:11.309Z,98921.81
2022-09-28T08:34:39.035Z,98917.69
2022-09-28T08:37:06.300Z,98922.56
2022-09-28T08:39:34.529Z,98927.81
2022-09-28T08:42:36.064Z,98931.59
2022-09-28T08:45:08.434Z,98937.22
2022-09-28T08:48:02.673Z,98938.38
2022-09-28T08:50:32.116Z,98947.00
2022-09-28T08:53:07.407Z,98945.50
2022-09-28T08:55:37.267Z,98946.59
2022-09-28T08:58:28.279Z,98942.47
2022-09-28T09:00:54.813Z,98939.88
2022-09-28T09:03:23.790Z,98939.13
2022-09-28T09:06:18.622Z,98939.88
2022-09-28T09:09:10.882Z,98941.75
2022-09-28T09:12:14.967Z,98943.66
2022-09-28T09:14:50.602Z,98939.50
2022-09-28T09:17:35.865Z,98949.63
2022-09-28T09:20:05.277Z,98947.66
2022-09-28T09:22:48.545Z,98951.84
2022-09-28T09:25:20.799Z,98951.09
2022-09-28T09:28:07.924Z,98948.88
2022-09-28T09:30:47.093Z,98952.25
2022-09-28T09:33:42.350Z,98953.38
2022-09-28T09:36:30.297Z,98954.13
2022-09-28T09:39:06.720Z,98947.00
2022-09-28T09:41:38.971Z,98945.50
2022-09-28T09:44:15.975Z,98941.38
2022-09-28T09:46:56.784Z,98947.38
2022-09-28T09:49:24.636Z,98951.91
2022-09-28T09:52:10.072Z,98942.47
2022-09-28T09:54:44.624Z,98937.97
2022-09-28T09:57:19.608Z,98948.16
2022-09-28T09:59:47.454Z,98937.25
2022-09-28T10:02:26.291Z,98938.38
2022-09-28T10:04:56.102Z,98936.47
2022-09-28T10:07:26.728Z,98942.53
2022-09-28T10:09:57.080Z,98953.06
2022-09-28T10:12:24.362Z,98951.16
2022-09-28T10:14:50.881Z,98942.50
2022-09-28T10:17:20.146Z,98954.56
2022-09-28T10:19:46.731Z,98948.53
2022-09-28T10:22:21.709Z,98954.19
2022-09-28T10:24:51.265Z,98957.94
2022-09-28T10:27:20.072Z,98948.94
2022-09-28T10:29:53.626Z,98948.16
2022-09-28T10:32:25.451Z,98948.16
2022-09-28T10:34:53.173Z,98954.19
2022-09-28T10:37:19.664Z,98957.19
2022-09-28T10:39:51.202Z,98962.09
2022-09-28T10:42:29.779Z,98958.69
2022-09-28T10:45:25.615Z,98963.19
2022-09-28T10:47:52.222Z,98968.09
2022-09-28T10:50:26.772Z,98960.59
2022-09-28T10:52:53.315Z,98963.59
2022-09-28T10:55:28.951Z,98968.44
2022-09-28T10:57:55.419Z,98969.56
2022-09-28T11:00:57.220Z,98974.47
2022-09-28T11:03:25.857Z,98963.56
2022-09-28T11:06:07.510Z,98973.00
2022-09-28T11:08:42.873Z,98964.31
2022-09-28T11:11:16.906Z,98974.84
2022-09-28T11:14:21.037Z,98977.50
2022-09-28T11:16:47.505Z,98969.22
2022-09-28T11:19:20.666Z,98969.63
2022-09-28T11:21:47.134Z,98979.38
2022-09-28T11:24:22.077Z,98986.16
2022-09-28T11:26:52.891Z,98977.53
2022-09-28T11:29:42.189Z,98977.88
2022-09-28T11:32:14.887Z,98982.44
2022-09-28T11:34:59.092Z,98979.44
2022-09-28T11:37:52.880Z,98969.25
2022-09-28T11:40:25.132Z,98977.78
2022-09-28T11:43:15.937Z,98975.44
2022-09-28T11:45:52.485Z,98965.84
2022-09-28T11:48:24.049Z,98961.00
2022-09-28T11:50:58.721Z,98970.16
2022-09-28T11:53:30.978Z,98966.38
2022-09-28T11:56:28.342Z,98968.56
2022-09-28T11:59:06.656Z,98969.72
2022-09-28T12:01:52.335Z,98965.56
2022-09-28T12:04:26.606Z,98954.50
2022-09-28T12:06:58.301Z,98959.09
2022-09-28T12:09:36.184Z,98959.72
2022-09-28T12:12:10.391Z,98963.41
2022-09-28T12:14:40.007Z,98957.13
2022-09-28T12:17:28.924Z,98960.75
2022-09-28T12:20:01.712Z,98971.81
2022-09-28T12:22:42.283Z,98961.34
2022-09-28T12:25:13.513Z,98957.75
2022-09-28T12:28:01.701Z,98968.56
2022-09-28T12:30:32.485Z,98949.69
2022-09-28T12:33:13.836Z,98957.00
2022-09-28T12:35:57.055Z,98957.28
2022-09-28T12:38:23.426Z,98956.56
2022-09-28T12:40:59.103Z,98959.41
2022-09-28T12:43:34.596Z,98957.28
2022-09-28T12:46:30.583Z,98956.69
2022-09-28T12:52:12.753Z,98967.72
2022-09-28T12:55:05.333Z,98956.31
2022-09-28T12:57:40.274Z,98966.00
2022-09-28T13:00:15.799Z,98967.00
2022-09-28T13:03:07.866Z,98961.22
2022-09-28T13:05:55.763Z,98963.53
2022-09-28T13:08:41.361Z,98962.69
2022-09-28T13:11:34.157Z,98964.69
2022-09-28T13:14:28.336Z,98962.88
2022-09-28T13:17:11.019Z,98962.84
2022-09-28T13:19:51.670Z,98971.66
2022-09-28T13:22:27.098Z,98967.53
2022-09-28T13:24:55.870Z,98968.94
2022-09-28T13:27:34.859Z,98964.25
2022-09-28T13:30:03.905Z,98975.66
2022-09-28T13:32:31.494Z,98973.72
2022-09-28T13:34:58.748Z,98974.97
2022-09-28T13:37:25.862Z,98982.19
2022-09-28T13:39:59.408Z,98985.81
2022-09-28T13:42:44.628Z,98985.22
2022-09-28T13:45:20.040Z,98987.91
2022-09-28T13:48:16.572Z,98984.16
2022-09-28T13:50:56.878Z,98993.19
2022-09-28T13:53:45.175Z,98989.50
2022-09-28T13:56:20.436Z,98994.66
2022-09-28T13:58:51.496Z,98992.91
2022-09-28T14:01:22.047Z,98996.31
2022-09-28T14:03:54.981Z,98993.66
2022-09-28T14:06:31.906Z,98990.59
2022-09-28T14:09:18.684Z,98995.91
2022-09-28T14:12:27.682Z,98992.38
2022-09-28T14:14:54.256Z,98995.84
2022-09-28T14:17:23.658Z,99001.91
2022-09-28T14:20:09.129Z,98997.88
2022-09-28T14:22:44.889Z,98993.25
2022-09-28T14:25:11.400Z,98997.44
2022-09-28T14:27:41.936Z,99001.22
2022-09-28T14:30:24.933Z,99007.34
2022-09-28T14:32:55.285Z,99002.16
2022-09-28T14:35:27.824Z,99010.13
2022-09-28T14:38:17.990Z,99008.59
2022-09-28T14:41:12.706Z,99008.59
2022-09-28T14:43:45.183Z,99008.22
2022-09-28T14:46:11.666Z,99013.88
2022-09-28T14:48:45.929Z,99013.13
2022-09-28T14:51:35.452Z,99022.91
2022-09-28T14:54:08.245Z,99016.53
2022-09-28T14:56:57.144Z,99015.44
2022-09-28T14:59:24.932Z,99023.75
2022-09-28T15:01:57.764Z,99022.63
2022-09-28T15:04:28.119Z,99020.00
2022-09-28T15:06:54.864Z,99033.19
2022-09-28T15:09:38.262Z,99034.69
2022-09-28T15:12:12.168Z,99035.06
2022-09-28T15:14:55.278Z,99039.59
2022-09-28T15:17:38.532Z,99031.69
2022-09-28T15:20:17.265Z,99032.09
2022-09-28T15:22:48.821Z,99026.09
2022-09-28T15:25:19.986Z,99035.09
2022-09-28T15:27:52.600Z,99041.88
2022-09-28T15:30:22.941Z,99035.09
2022-09-28T15:32:49.893Z,99039.97
2022-09-28T15:35:20.951Z,99037.34
2022-09-28T15:37:54.890Z,99036.97
2022-09-28T15:40:27.088Z,99034.31
2022-09-28T15:42:59.197Z,99039.22
2022-09-28T15:45:34.958Z,99035.81
2022-09-28T15:48:31.052Z,99043.00
2022-09-28T15:51:10.845Z,99046.78
2022-09-28T15:54:02.106Z,99041.13
2022-09-28T15:56:29.418Z,99050.94
2022-09-28T15:59:10.955Z,99044.53
2022-09-28T16:01:39.723Z,99054.69
2022-09-28T16:04:32.818Z,99050.16
2022-09-28T16:07:18.436Z,99060.00
2022-09-28T16:10:13.606Z,99056.97
2022-09-28T16:12:39.945Z,99057.00
2022-09-28T16:15:25.139Z,99059.25
2022-09-28T16:17:55.867Z,99067.91
2022-09-28T16:20:32.131Z,99065.28
2022-09-28T16:23:05.896Z,99062.25
2022-09-28T16:25:35.808Z,99061.91
2022-09-28T16:28:02.247Z,99059.97
2022-09-28T16:30:33.613Z,99064.50
2022-09-28T16:33:05.675Z,99069.03
2022-09-28T16:35:34.763Z,99070.19
2022-09-28T16:38:14.349Z,99067.13
2022-09-28T16:40:42.664Z,99070.50
2022-09-28T16:43:17.535Z,99070.50
2022-09-28T16:45:44.176Z,99072.00
2022-09-28T16:48:16.329Z,99068.59
2022-09-28T16:50:42.988Z,99080.28
2022-09-28T16:53:35.806Z,99064.81
2022-09-28T16:56:03.642Z,99071.50
2022-09-28T16:58:31.495Z,99071.13
2022-09-28T17:06:31.381Z,99076.69
2022-09-28T17:08:58.698Z,99067.63
2022-09-28T17:17:06.718Z,99065.63
2022-09-28T17:19:31.335Z,99067.25
2022-09-28T17:21:57.863Z,99064.88
2022-09-28T17:24:24.308Z,99059.94
2022-09-28T17:26:51.770Z,99069.69
2022-09-28T17:29:18.936Z,99065.19
2022-09-28T17:31:46.558Z,99071.84
2022-09-28T17:34:16.750Z,99075.03
2022-09-28T17:36:43.455Z,99062.97
2022-09-28T17:39:14.672Z,99064.78
2022-09-28T17:41:41.477Z,99066.69
2022-09-28T17:44:08.678Z,99069.44
2022-09-28T17:46:39.489Z,99070.66
2022-09-28T17:49:07.543Z,99066.13
2022-09-28T17:51:37.482Z,99070.97
2022-09-28T17:54:06.575Z,99069.47
2022-09-28T17:56:33.118Z,99068.69
2022-09-28T17:59:07.768Z,99067.84
2022-09-28T18:01:37.812Z,99061.06
2022-09-28T18:04:08.125Z,99070.09
2022-09-28T18:06:35.085Z,99071.13
2022-09-28T18:09:03.112Z,99060.88
2022-09-28T18:11:30.600Z,99071.34
2022-09-28T18:13:58.236Z,99076.56
2022-09-28T18:16:28.534Z,99077.59
2022-09-28T18:18:55.551Z,99069.81
2022-09-28T18:21:22.081Z,99074.53
2022-09-28T18:23:51.604Z,99075.16
2022-09-28T18:26:21.256Z,99077.28
2022-09-28T18:28:47.809Z,99087.78
2022-09-28T18:31:15.635Z,99082.91
2022-09-28T18:33:43.307Z,99082.56
2022-09-28T18:36:09.878Z,99081.06
2022-09-28T18:38:36.958Z,99081.09
2022-09-28T18:41:11.974Z,99077.78
2022-09-28T18:43:38.556Z,99085.50
2022-09-28T18:46:07.431Z,99082.06
2022-09-28T18:48:34.076Z,99084.06
2022-09-28T18:51:00.540Z,99084.34
2022-09-28T18:53:27.139Z,99085.69
2022-09-28T18:55:53.726Z,99084.91
2022-09-28T18:58:20.171Z,99079.19
2022-09-28T19:00:46.644Z,99087.00
2022-09-28T19:03:14.410Z,99078.34
2022-09-28T19:05:42.593Z,99085.41
2022-09-28T19:08:09.917Z,99085.50
2022-09-28T19:10:36.688Z,99085.41
2022-09-28T19:13:03.181Z,99080.56
2022-09-28T19:15:29.697Z,99085.06
2022-09-28T19:17:57.123Z,99091.88
2022-09-28T19:20:23.637Z,99087.63
2022-09-28T19:22:50.762Z,99087.53
2022-09-28T19:25:17.415Z,99088.59
2022-09-28T19:27:44.279Z,99095.09
2022-09-28T19:30:11.253Z,99089.91
2022-09-28T19:32:37.921Z,99100.47
2022-09-28T19:35:05.142Z,99095.75
2022-09-28T19:37:35.413Z,99103.22
2022-09-28T19:40:05.830Z,99093.25
2022-09-28T19:42:32.814Z,99099.44
2022-09-28T19:44:59.455Z,99094.44
2022-09-28T19:47:26.077Z,99102.72
2022-09-28T19:49:53.494Z,99100.09
2022-09-28T19:52:20.005Z,99104.59
2022-09-28T19:54:58.697Z,99102.09
2022-09-28T19:57:30.580Z,99096.09
2022-09-28T20:00:02.131Z,99102.78
2022-09-28T20:02:29.608Z,99103.41
2022-09-28T20:04:56.170Z,99102.53
2022-09-28T20:07:22.661Z,99101.94
2022-09-28T20:09:49.160Z,99095.34
2022-09-28T20:12:15.751Z,99105.56
2022-09-28T20:14:42.275Z,99107.41
2022-09-28T20:17:09.678Z,99108.91
2022-09-28T20:19:36.190Z,99102.50
2022-09-28T20:22:03.163Z,99111.66
2022-09-28T20:24:31.360Z,99114.06
2022-09-28T20:27:00.125Z,99108.47
2022-09-28T20:29:26.774Z,99103.78
2022-09-28T20:31:54.992Z,99107.34
2022-09-28T20:34:21.508Z,99109.31
2022-09-28T20:36:48.664Z,99113.28
2022-09-28T20:39:15.479Z,99107.13
2022-09-28T20:41:42.413Z,99114.81
2022-09-28T20:44:09.583Z,99109.03
2022-09-28T20:46:36.901Z,99118.34
2022-09-28T20:49:04.599Z,99107.63
2022-09-28T20:51:31.672Z,99110.97
2022-09-28T20:53:58.882Z,99108.41
2022-09-28T20:56:30.704Z,99105.56
2022-09-28T20:58:57.515Z,99108.28
2022-09-28T21:01:29.844Z,99114.78
2022-09-28T21:03:58.063Z,99114.63
2022-09-28T21:06:29.826Z,99110.44
2022-09-28T21:08:56.684Z,99114.22
2022-09-28T21:11:24.700Z,99107.44
2022-09-28T21:13:57.220Z,99121.75
2022-09-28T21:16:24.646Z,99126.09
2022-09-28T21:18:51.192Z,99127.38
2022-09-28T21:21:21.374Z,99128.91
2022-09-28T21:23:48.163Z,99119.19
2022-09-28T21:26:25.040Z,99125.03
2022-09-28T21:28:53.846Z,99126.59
2022-09-28T21:31:26.085Z,99131.25
2022-09-28T21:33:55.269Z,99130.03
2022-09-28T21:36:21.822Z,99127.25
2022-09-28T21:38:48.290Z,99117.41
2022-09-28T21:41:15.058Z,99129.97
2022-09-28T21:43:41.512Z,99119.38
2022-09-28T21:46:07.983Z,99128.84
2022-09-28T21:48:34.493Z,99128.34
2022-09-28T21:51:06.179Z,99127.22
2022-09-28T21:53:35.067Z,99130.75
2022-09-28T21:56:02.359Z,99133.41
2022-09-28T21:58:31.154Z,99130.78
2022-09-28T22:01:06.852Z,99128.66
2022-09-28T22:03:35.258Z,99131.47
2022-09-28T22:06:03.294Z,99128.03
2022-09-28T22:08:29.856Z,99123.72
2022-09-28T22:11:06.739Z,99130.72
2022-09-28T22:13:40.311Z,99136.28
2022-09-28T22:16:07.436Z,99139.00
2022-09-28T22:18:34.513Z,99141.53
2022-09-28T22:21:12.030Z,99141.38
2022-09-28T22:23:39.119Z,99154.97
2022-09-28T22:26:11.132Z,99154.03
2022-09-28T22:28:38.182Z,99162.03
2022-09-28T22:31:04.829Z,99161.09
2022-09-28T22:33:31.531Z,99160.19
2022-09-28T22:35:57.997Z,99154.84
2022-09-28T22:38:24.921Z,99156.41
2022-09-28T22:40:54.613Z,99154.22
2022-09-28T22:43:23.405Z,99154.09
2022-09-28T22:45:50.235Z,99152.38
2022-09-28T22:48:18.574Z,99153.44
2022-09-28T22:50:51.573Z,99151.38
2022-09-28T22:53:18.875Z,99161.53
2022-09-28T22:55:45.558Z,99155.25
2022-09-28T22:58:12.246Z,99163.25
2022-09-28T23:00:38.719Z,99158.28
2022-09-28T23:03:05.367Z,99162.44
2022-09-28T23:05:31.996Z,99166.59
2022-09-28T23:07:58.461Z,99162.81
2022-09-28T23:10:24.935Z,99159.03
2022-09-28T23:12:53.467Z,99156.56
2022-09-28T23:15:20.992Z,99161.16
2022-09-28T23:17:53.995Z,99162.44
2022-09-28T23:20:21.175Z,99157.81
2022-09-28T23:22:48.023Z,99167.28
2022-09-28T23:25:17.713Z,99164.22
2022-09-28T23:27:48.763Z,99168.09
2022-09-28T23:30:16.831Z,99169.72
2022-09-28T23:32:44.932Z,99171.66
2022-09-28T23:35:11.818Z,99175.56
2022-09-28T23:37:38.784Z,99178.06
2022-09-28T23:40:06.260Z,99171.59
2022-09-28T23:42:34.696Z,99177.16
2022-09-28T23:45:03.592Z,99173.00
2022-09-28T23:47:30.069Z,99175.31
2022-09-28T23:49:56.545Z,99181.56
2022-09-28T23:52:23.004Z,99175.94
2022-09-28T23:54:50.514Z,99176.09
2022-09-28T23:57:16.960Z,99169.28
2022-09-28T23:59:43.407Z,99172.28
